createdAt,value
2023-05-17T00:01:47.314Z,43.90
2023-05-17T00:04:14.262Z,43.92
2023-05-17T00:06:41.134Z,43.83
2023-05-17T00:09:08.540Z,43.73
2023-05-17T00:11:35.772Z,43.68
2023-05-17T00:14:03.431Z,43.50
2023-05-17T00:16:30.303Z,43.55
2023-05-17T00:18:57.365Z,43.38
2023-05-17T00:21:24.500Z,43.47
2023-05-17T00:23:51.371Z,43.66
2023-05-17T00:26:18.234Z,43.34
2023-05-17T00:28:45.354Z,43.37
2023-05-17T00:31:14.458Z,43.45
2023-05-17T00:33:41.366Z,43.52
2023-05-17T00:36:08.329Z,43.65
2023-05-17T00:38:35.480Z,43.44
2023-05-17T00:41:07.404Z,43.66
2023-05-17T00:43:35.174Z,43.52
2023-05-17T00:46:02.146Z,43.69
2023-05-17T00:48:29.335Z,43.76
2023-05-17T00:50:56.483Z,43.86
2023-05-17T00:53:23.623Z,43.99
2023-05-17T00:55:50.532Z,43.90
2023-05-17T00:58:17.652Z,43.94
2023-05-17T01:00:46.504Z,44.04
2023-05-17T01:03:13.914Z,44.11
2023-05-17T01:05:41.714Z,44.33
2023-05-17T01:08:08.840Z,44.54
2023-05-17T01:10:39.084Z,44.49
2023-05-17T01:13:29.125Z,44.54
2023-05-17T01:16:09.069Z,44.43
2023-05-17T01:18:40.316Z,44.42
2023-05-17T01:21:35.512Z,44.44
2023-05-17T01:24:26.848Z,44.63
2023-05-17T01:26:54.159Z,44.54
2023-05-17T01:29:27.245Z,44.82
2023-05-17T01:31:56.285Z,44.73
2023-05-17T01:34:25.874Z,44.69
2023-05-17T01:36:52.723Z,44.94
2023-05-17T01:39:19.650Z,45.05
2023-05-17T01:41:55.115Z,45.18
2023-05-17T01:44:47.224Z,45.04
2023-05-17T01:47:24.166Z,45.01
2023-05-17T01:49:57.778Z,45.14
2023-05-17T01:52:29.307Z,45.36
2023-05-17T01:55:10.358Z,45.33
2023-05-17T01:57:37.676Z,45.53
2023-05-17T02:00:09.682Z,45.63
2023-05-17T02:02:45.017Z,45.72
2023-05-17T02:05:12.135Z,45.73
2023-05-17T02:07:41.349Z,45.62
2023-05-17T02:10:13.689Z,45.65
2023-05-17T02:12:43.429Z,45.88
2023-05-17T02:15:11.503Z,45.63
2023-05-17T02:17:45.180Z,45.67
2023-05-17T02:20:12.448Z,45.77
2023-05-17T02:22:39.801Z,45.64
2023-05-17T02:25:12.586Z,45.60
2023-05-17T02:27:40.338Z,45.84
2023-05-17T02:30:09.973Z,45.87
2023-05-17T02:32:38.363Z,45.77
2023-05-17T02:35:07.108Z,45.99
2023-05-17T02:37:34.168Z,46.15
2023-05-17T02:40:01.028Z,46.25
2023-05-17T02:42:27.934Z,46.14
2023-05-17T02:44:57.437Z,46.11
2023-05-17T02:47:24.311Z,46.27
2023-05-17T02:49:51.637Z,46.44
2023-05-17T02:52:18.474Z,46.53
2023-05-17T02:54:45.420Z,46.83
2023-05-17T02:57:12.615Z,46.87
2023-05-17T02:59:39.434Z,46.95
2023-05-17T03:02:06.791Z,46.83
2023-05-17T03:04:33.691Z,46.72
2023-05-17T03:07:00.562Z,46.61
2023-05-17T03:09:29.756Z,47.00
2023-05-17T03:11:57.274Z,47.01
2023-05-17T03:14:27.697Z,47.15
2023-05-17T03:16:54.809Z,47.00
2023-05-17T03:19:23.018Z,47.33
2023-05-17T03:21:51.567Z,47.16
2023-05-17T03:24:23.716Z,46.74
2023-05-17T03:26:51.251Z,47.11
2023-05-17T03:29:18.165Z,47.12
2023-05-17T03:31:45.481Z,47.38
2023-05-17T03:34:13.255Z,47.33
2023-05-17T03:36:40.812Z,47.28
2023-05-17T03:39:08.463Z,47.43
2023-05-17T03:42:14.253Z,47.39
2023-05-17T03:44:42.000Z,47.33
2023-05-17T03:47:08.889Z,47.20
2023-05-17T03:49:36.112Z,47.11
2023-05-17T03:52:04.236Z,47.22
2023-05-17T03:54:31.561Z,47.57
2023-05-17T03:56:58.391Z,47.60
2023-05-17T03:59:25.414Z,47.14
2023-05-17T04:01:52.330Z,46.95
2023-05-17T04:04:19.390Z,47.25
2023-05-17T04:06:46.611Z,46.97
2023-05-17T04:09:15.058Z,47.27
2023-05-17T04:11:42.916Z,46.98
2023-05-17T04:14:17.562Z,47.02
2023-05-17T04:16:44.503Z,47.05
2023-05-17T04:19:11.352Z,46.97
2023-05-17T04:21:39.980Z,47.05
2023-05-17T04:24:07.167Z,47.00
2023-05-17T04:26:35.156Z,47.35
2023-05-17T04:29:03.198Z,46.94
2023-05-17T04:31:31.566Z,46.80
2023-05-17T04:33:58.456Z,45.74
2023-05-17T04:36:26.000Z,45.38
2023-05-17T04:38:53.992Z,45.45
2023-05-17T04:41:24.245Z,45.37
2023-05-17T04:43:51.512Z,45.02
2023-05-17T04:46:22.658Z,44.90
2023-05-17T04:48:49.842Z,45.16
2023-05-17T04:51:17.809Z,44.84
2023-05-17T04:53:45.295Z,44.95
2023-05-17T04:56:16.251Z,45.13
2023-05-17T04:58:43.606Z,45.16
2023-05-17T05:01:11.720Z,44.90
2023-05-17T05:03:39.778Z,44.96
2023-05-17T05:06:07.812Z,44.98
2023-05-17T05:08:35.182Z,44.31
2023-05-17T05:11:02.562Z,43.89
2023-05-17T05:13:29.992Z,43.76
2023-05-17T05:15:56.922Z,43.74
2023-05-17T05:18:24.809Z,44.16
2023-05-17T05:20:52.127Z,43.93
2023-05-17T05:23:19.273Z,43.95
2023-05-17T05:25:47.852Z,44.15
2023-05-17T05:28:15.487Z,44.12
2023-05-17T05:30:42.937Z,43.86
2023-05-17T05:33:11.260Z,43.51
2023-05-17T05:35:38.522Z,43.66
2023-05-17T05:38:05.427Z,43.27
2023-05-17T05:40:33.213Z,43.30
2023-05-17T05:43:00.739Z,43.31
2023-05-17T05:45:27.743Z,43.09
2023-05-17T05:47:57.522Z,42.45
2023-05-17T05:50:24.725Z,42.38
2023-05-17T05:52:58.093Z,41.91
2023-05-17T05:55:34.229Z,42.11
2023-05-17T05:58:01.271Z,42.01
2023-05-17T06:00:28.861Z,42.24
2023-05-17T06:02:56.990Z,41.38
2023-05-17T06:05:23.948Z,41.05
2023-05-17T06:07:50.958Z,40.01
2023-05-17T06:10:17.894Z,39.40
2023-05-17T06:12:45.442Z,39.33
2023-05-17T06:15:12.353Z,39.11
2023-05-17T06:17:41.762Z,38.35
2023-05-17T06:20:09.329Z,38.32
2023-05-17T06:22:36.560Z,37.68
2023-05-17T06:25:04.614Z,37.58
2023-05-17T06:27:35.052Z,37.23
2023-05-17T06:30:05.528Z,37.40
2023-05-17T06:32:34.901Z,37.46
2023-05-17T06:35:02.073Z,37.44
2023-05-17T06:37:29.344Z,36.63
2023-05-17T06:40:15.547Z,36.68
2023-05-17T06:42:44.222Z,35.59
2023-05-17T06:45:12.576Z,34.61
2023-05-17T06:47:39.864Z,34.24
2023-05-17T06:50:08.351Z,33.86
2023-05-17T06:52:35.761Z,34.23
2023-05-17T06:55:03.328Z,32.16
2023-05-17T06:57:30.843Z,32.15
2023-05-17T06:59:57.936Z,31.79
2023-05-17T07:02:24.894Z,31.68
2023-05-17T07:04:51.891Z,31.64
2023-05-17T07:07:19.115Z,31.90
2023-05-17T07:09:46.101Z,31.89
2023-05-17T07:12:13.167Z,31.78
2023-05-17T07:14:40.400Z,31.71
2023-05-17T07:17:07.268Z,31.84
2023-05-17T07:19:34.258Z,31.25
2023-05-17T07:22:01.449Z,31.37
2023-05-17T07:24:28.497Z,31.41
2023-05-17T07:26:55.747Z,31.26
2023-05-17T07:29:22.772Z,30.77
2023-05-17T07:31:51.230Z,30.54
2023-05-17T07:34:18.112Z,30.72
2023-05-17T07:36:45.436Z,31.26
2023-05-17T07:39:12.611Z,30.87
2023-05-17T07:41:39.479Z,31.47
2023-05-17T07:44:06.492Z,30.91
2023-05-17T07:46:33.772Z,31.56
2023-05-17T07:49:03.869Z,30.43
2023-05-17T07:51:31.436Z,29.89
2023-05-17T07:53:58.414Z,30.28
2023-05-17T07:56:25.461Z,31.66
2023-05-17T07:58:57.621Z,33.18
2023-05-17T08:01:24.514Z,33.39
2023-05-17T08:03:52.917Z,32.50
2023-05-17T08:06:19.998Z,31.78
2023-05-17T08:08:47.056Z,31.82
2023-05-17T08:11:14.507Z,32.16
2023-05-17T08:13:41.591Z,30.90
2023-05-17T08:16:14.251Z,29.94
2023-05-17T08:18:42.881Z,30.28
2023-05-17T08:21:10.702Z,30.91
2023-05-17T08:23:37.552Z,29.98
2023-05-17T08:26:04.479Z,29.41
2023-05-17T08:28:31.521Z,30.48
2023-05-17T08:30:58.775Z,30.03
2023-05-17T08:33:27.063Z,29.56
2023-05-17T08:35:54.821Z,30.39
2023-05-17T08:38:21.825Z,30.30
2023-05-17T08:40:55.735Z,29.53
2023-05-17T08:43:25.251Z,29.06
2023-05-17T08:45:57.137Z,29.20
2023-05-17T08:48:25.903Z,27.61
2023-05-17T08:50:53.697Z,26.93
2023-05-17T08:53:21.506Z,25.55
2023-05-17T08:55:49.028Z,26.42
2023-05-17T08:58:18.720Z,25.70
2023-05-17T09:00:46.668Z,26.16
2023-05-17T09:03:15.401Z,25.75
2023-05-17T09:05:42.896Z,24.58
2023-05-17T09:08:13.440Z,24.06
2023-05-17T09:10:47.656Z,23.54
2023-05-17T09:13:15.146Z,23.60
2023-05-17T09:15:47.071Z,23.23
2023-05-17T09:18:16.276Z,22.54
2023-05-17T09:20:49.978Z,22.39
2023-05-17T09:23:18.874Z,21.33
2023-05-17T09:25:47.597Z,20.81
2023-05-17T09:28:15.138Z,21.37
2023-05-17T09:30:42.781Z,20.90
2023-05-17T09:33:10.911Z,20.71
2023-05-17T09:35:38.256Z,20.16
2023-05-17T09:38:07.414Z,20.03
2023-05-17T09:40:42.146Z,19.55
2023-05-17T09:43:10.270Z,18.81
2023-05-17T09:45:37.452Z,18.94
2023-05-17T09:48:17.780Z,18.50
2023-05-17T09:50:45.960Z,17.92
2023-05-17T09:53:25.784Z,18.26
2023-05-17T09:55:54.174Z,17.64
2023-05-17T09:58:21.645Z,17.59
2023-05-17T10:00:54.621Z,17.24
2023-05-17T10:03:22.079Z,17.26
2023-05-17T10:05:51.023Z,16.97
2023-05-17T10:08:19.843Z,16.93
2023-05-17T10:10:46.754Z,16.88
2023-05-17T10:13:13.678Z,16.86
2023-05-17T10:15:40.789Z,17.02
2023-05-17T10:18:08.679Z,16.81
2023-05-17T10:20:36.506Z,17.38
2023-05-17T10:23:05.779Z,17.68
2023-05-17T10:25:33.115Z,17.66
2023-05-17T10:28:00.334Z,17.73
2023-05-17T10:30:28.003Z,17.42
2023-05-17T10:32:55.517Z,16.91
2023-05-17T10:35:22.647Z,16.49
2023-05-17T10:37:50.219Z,16.04
2023-05-17T10:40:17.145Z,16.35
2023-05-17T10:42:54.036Z,16.43
2023-05-17T10:45:23.347Z,16.54
2023-05-17T10:47:54.166Z,16.23
2023-05-17T10:50:25.678Z,15.99
2023-05-17T10:52:53.113Z,16.26
2023-05-17T10:55:24.625Z,16.47
2023-05-17T10:58:10.282Z,15.46
2023-05-17T11:00:43.613Z,15.97
2023-05-17T11:03:17.538Z,15.80
2023-05-17T11:06:06.419Z,15.87
2023-05-17T11:08:34.060Z,15.96
2023-05-17T11:11:16.948Z,16.18
2023-05-17T11:13:52.218Z,15.93
2023-05-17T11:16:34.300Z,16.44
2023-05-17T11:19:08.930Z,16.22
2023-05-17T11:21:36.193Z,16.03
2023-05-17T11:24:03.904Z,15.67
2023-05-17T11:26:37.070Z,16.15
2023-05-17T11:29:08.315Z,15.88
2023-05-17T11:31:36.053Z,15.81
2023-05-17T11:34:03.671Z,15.79
2023-05-17T11:36:31.788Z,15.57
2023-05-17T11:39:15.361Z,15.36
2023-05-17T11:41:52.431Z,15.40
2023-05-17T11:44:28.973Z,15.52
2023-05-17T11:47:06.532Z,15.20
2023-05-17T11:49:37.040Z,15.37
2023-05-17T11:52:07.547Z,15.47
2023-05-17T11:54:37.892Z,15.65
2023-05-17T11:57:05.029Z,14.65
2023-05-17T11:59:39.574Z,14.49
2023-05-17T12:02:07.434Z,15.02
2023-05-17T12:04:36.868Z,14.65
2023-05-17T12:07:03.895Z,15.27
2023-05-17T12:09:31.907Z,15.22
2023-05-17T12:12:04.242Z,14.98
2023-05-17T12:14:31.418Z,15.26
2023-05-17T12:17:00.829Z,14.96
2023-05-17T12:19:29.369Z,15.79
2023-05-17T12:22:13.273Z,15.67
2023-05-17T12:24:41.711Z,15.62
2023-05-17T12:27:08.888Z,15.59
2023-05-17T12:29:36.302Z,15.13
2023-05-17T12:32:03.619Z,15.27
2023-05-17T12:34:30.613Z,15.71
2023-05-17T12:36:57.537Z,14.98
2023-05-17T12:39:24.554Z,15.49
2023-05-17T12:41:51.924Z,15.43
2023-05-17T12:44:22.140Z,15.88
2023-05-17T12:46:53.450Z,16.19
2023-05-17T12:49:23.309Z,16.02
2023-05-17T12:51:50.351Z,15.87
2023-05-17T12:54:23.521Z,16.20
2023-05-17T12:56:50.950Z,16.56
2023-05-17T12:59:18.419Z,16.34
2023-05-17T13:01:50.119Z,16.33
2023-05-17T13:04:18.066Z,17.68
2023-05-17T13:06:52.107Z,17.26
2023-05-17T13:09:20.617Z,17.24
2023-05-17T13:11:56.074Z,16.86
2023-05-17T13:14:45.694Z,17.60
2023-05-17T13:17:23.501Z,16.77
2023-05-17T13:19:50.557Z,17.52
2023-05-17T13:22:18.026Z,17.24
2023-05-17T13:24:45.147Z,18.22
2023-05-17T13:27:17.338Z,16.73
2023-05-17T13:29:45.676Z,16.02
2023-05-17T13:32:13.161Z,16.34
2023-05-17T13:34:40.711Z,16.44
2023-05-17T13:37:11.501Z,16.21
2023-05-17T13:39:40.576Z,16.45
2023-05-17T13:42:07.778Z,16.58
2023-05-17T13:44:34.834Z,16.55
2023-05-17T13:47:01.697Z,16.06
2023-05-17T13:49:28.975Z,16.30
2023-05-17T13:51:56.202Z,16.64
2023-05-17T13:54:23.597Z,16.74
2023-05-17T13:56:50.663Z,17.08
2023-05-17T13:59:18.171Z,16.95
2023-05-17T14:01:45.311Z,17.21
2023-05-17T14:04:12.352Z,17.61
2023-05-17T14:06:41.006Z,17.76
2023-05-17T14:09:07.999Z,18.04
2023-05-17T14:11:35.114Z,17.82
2023-05-17T14:14:03.612Z,18.24
2023-05-17T14:16:30.646Z,18.44
2023-05-17T14:18:57.667Z,18.75
2023-05-17T14:21:24.828Z,18.80
2023-05-17T14:23:52.022Z,18.93
2023-05-17T14:26:18.922Z,19.17
2023-05-17T14:28:51.371Z,19.02
2023-05-17T14:31:18.217Z,19.69
2023-05-17T14:33:45.183Z,19.83
2023-05-17T14:36:14.032Z,20.46
2023-05-17T14:38:41.476Z,20.59
2023-05-17T14:41:08.474Z,20.75
2023-05-17T14:43:36.171Z,21.07
2023-05-17T14:46:03.462Z,21.39
2023-05-17T14:48:36.434Z,21.58
2023-05-17T14:51:03.603Z,22.00
2023-05-17T14:53:31.514Z,22.17
2023-05-17T14:55:58.717Z,22.32
2023-05-17T14:58:25.994Z,22.43
2023-05-17T15:01:05.222Z,22.25
2023-05-17T15:03:34.468Z,22.39
2023-05-17T15:06:03.388Z,22.51
2023-05-17T15:08:35.464Z,22.70
2023-05-17T15:11:02.457Z,23.27
2023-05-17T15:13:29.850Z,23.67
2023-05-17T15:15:56.699Z,23.08
2023-05-17T15:18:23.688Z,23.35
2023-05-17T15:20:51.309Z,23.56
2023-05-17T15:23:23.433Z,23.50
2023-05-17T15:25:50.753Z,23.63
2023-05-17T15:28:20.300Z,23.70
2023-05-17T15:30:47.326Z,23.64
2023-05-17T15:33:14.621Z,23.58
2023-05-17T15:35:42.763Z,23.85
2023-05-17T15:38:10.479Z,24.26
2023-05-17T15:40:38.172Z,24.12
2023-05-17T15:43:05.027Z,24.41
2023-05-17T15:45:32.341Z,24.34
2023-05-17T15:48:01.378Z,24.65
2023-05-17T15:50:33.650Z,24.70
2023-05-17T15:53:02.447Z,24.66
2023-05-17T15:55:29.759Z,24.80
2023-05-17T15:57:56.878Z,25.16
2023-05-17T16:00:23.988Z,25.11
2023-05-17T16:02:51.156Z,25.43
2023-05-17T16:05:18.176Z,25.55
2023-05-17T16:07:45.921Z,25.63
2023-05-17T16:10:18.140Z,26.10
2023-05-17T16:12:46.975Z,26.22
2023-05-17T16:15:13.962Z,26.53
2023-05-17T16:17:41.208Z,26.83
2023-05-17T16:20:08.671Z,27.08
2023-05-17T16:22:36.741Z,27.22
2023-05-17T16:25:05.751Z,27.37
2023-05-17T16:27:32.827Z,27.40
2023-05-17T16:29:59.697Z,27.58
2023-05-17T16:32:26.628Z,27.70
2023-05-17T16:34:53.556Z,27.74
2023-05-17T16:37:21.110Z,28.09
2023-05-17T16:39:48.097Z,28.22
2023-05-17T16:42:15.172Z,28.29
2023-05-17T16:44:42.087Z,28.47
2023-05-17T16:47:09.218Z,28.62
2023-05-17T16:49:36.792Z,28.87
2023-05-17T16:52:03.946Z,29.04
2023-05-17T16:54:33.278Z,29.43
2023-05-17T16:57:01.605Z,29.51
2023-05-17T16:59:28.829Z,29.83
2023-05-17T17:01:56.066Z,29.96
2023-05-17T17:04:23.392Z,29.95
2023-05-17T17:06:51.105Z,30.04
2023-05-17T17:09:28.400Z,30.33
2023-05-17T17:11:55.633Z,30.56
2023-05-17T17:14:24.768Z,30.57
2023-05-17T17:16:51.778Z,30.70
2023-05-17T17:19:19.041Z,30.96
2023-05-17T17:21:46.599Z,30.95
2023-05-17T17:24:13.563Z,31.02
2023-05-17T17:26:40.594Z,31.22
2023-05-17T17:29:07.913Z,31.34
2023-05-17T17:31:35.148Z,31.48
2023-05-17T17:34:02.229Z,31.61
2023-05-17T17:36:29.928Z,31.68
2023-05-17T17:38:56.859Z,31.95
2023-05-17T17:41:23.949Z,32.11
2023-05-17T17:43:50.877Z,32.22
2023-05-17T17:46:18.183Z,32.47
2023-05-17T17:48:45.161Z,32.75
2023-05-17T17:51:11.941Z,32.84
2023-05-17T17:53:40.844Z,33.00
2023-05-17T17:56:08.180Z,33.44
2023-05-17T17:58:36.149Z,33.48
2023-05-17T18:01:08.298Z,33.51
2023-05-17T18:03:35.484Z,33.93
2023-05-17T18:06:04.118Z,34.06
2023-05-17T18:08:31.567Z,34.15
2023-05-17T18:10:58.460Z,34.27
2023-05-17T18:13:25.925Z,34.39
2023-05-17T18:15:54.247Z,34.24
2023-05-17T18:18:26.480Z,34.34
2023-05-17T18:20:53.367Z,34.19
2023-05-17T18:23:21.264Z,34.11
2023-05-17T18:25:48.609Z,33.92
2023-05-17T18:28:18.241Z,33.99
2023-05-17T18:30:52.387Z,34.03
2023-05-17T18:33:19.356Z,33.98
2023-05-17T18:35:46.465Z,33.88
2023-05-17T18:38:13.441Z,33.82
2023-05-17T18:40:40.428Z,33.80
2023-05-17T18:43:07.464Z,33.85
2023-05-17T18:45:35.979Z,34.08
2023-05-17T18:48:03.406Z,33.76
2023-05-17T18:50:32.047Z,34.10
2023-05-17T18:53:01.957Z,34.09
2023-05-17T18:55:34.164Z,34.26
2023-05-17T18:58:01.203Z,34.39
2023-05-17T19:00:28.398Z,34.64
2023-05-17T19:02:55.716Z,34.63
2023-05-17T19:05:23.169Z,34.62
2023-05-17T19:07:50.153Z,34.66
2023-05-17T19:10:22.303Z,34.77
2023-05-17T19:12:49.383Z,35.04
2023-05-17T19:15:16.362Z,35.21
2023-05-17T19:17:43.804Z,35.33
2023-05-17T19:20:11.351Z,35.18
2023-05-17T19:22:38.471Z,35.31
2023-05-17T19:25:06.503Z,35.48
2023-05-17T19:27:33.964Z,35.99
2023-05-17T19:30:01.366Z,36.31
2023-05-17T19:32:32.435Z,36.43
2023-05-17T19:35:00.731Z,36.73
2023-05-17T19:37:28.076Z,37.02
2023-05-17T19:39:55.466Z,37.15
2023-05-17T19:42:23.091Z,37.35
2023-05-17T19:44:50.187Z,37.35
2023-05-17T19:47:17.175Z,37.43
2023-05-17T19:49:44.289Z,37.46
2023-05-17T19:52:11.815Z,37.76
2023-05-17T19:54:38.830Z,37.89
2023-05-17T19:57:06.021Z,37.95
2023-05-17T19:59:33.659Z,38.17
2023-05-17T20:02:00.934Z,38.36
2023-05-17T20:04:27.980Z,38.44
2023-05-17T20:06:54.931Z,38.80
2023-05-17T20:09:24.594Z,38.99
2023-05-17T20:11:54.269Z,39.36
2023-05-17T20:14:27.403Z,39.59
2023-05-17T20:16:54.456Z,39.95
2023-05-17T20:19:21.677Z,40.31
2023-05-17T20:21:48.993Z,40.50
2023-05-17T20:24:15.946Z,41.09
2023-05-17T20:26:45.951Z,41.18
2023-05-17T20:29:12.976Z,41.63
2023-05-17T20:31:40.275Z,41.99
2023-05-17T20:34:07.673Z,42.48
2023-05-17T20:36:40.469Z,43.24
2023-05-17T20:39:07.485Z,44.05
2023-05-17T20:41:34.674Z,44.32
2023-05-17T20:44:01.882Z,45.15
2023-05-17T20:46:29.432Z,45.84
2023-05-17T20:48:57.629Z,46.29
2023-05-17T20:51:26.505Z,46.70
2023-05-17T20:53:53.832Z,46.97
2023-05-17T20:56:20.681Z,47.21
2023-05-17T20:58:48.074Z,47.51
2023-05-17T21:01:14.986Z,47.30
2023-05-17T21:03:42.696Z,47.12
2023-05-17T21:06:10.294Z,47.30
2023-05-17T21:08:37.881Z,47.50
2023-05-17T21:11:05.138Z,47.75
2023-05-17T21:13:32.396Z,48.17
2023-05-17T21:15:59.333Z,48.49
2023-05-17T21:18:26.215Z,48.67
2023-05-17T21:20:59.608Z,48.96
2023-05-17T21:23:26.507Z,49.53
2023-05-17T21:25:58.683Z,49.69
2023-05-17T21:28:25.683Z,49.74
2023-05-17T21:30:52.735Z,50.12
2023-05-17T21:33:19.782Z,50.73
2023-05-17T21:35:46.753Z,50.92
2023-05-17T21:38:18.916Z,51.27
2023-05-17T21:40:45.906Z,51.46
2023-05-17T21:43:12.886Z,51.42
2023-05-17T21:45:41.275Z,51.19
2023-05-17T21:48:08.200Z,50.98
2023-05-17T21:50:35.390Z,51.32
2023-05-17T21:53:02.257Z,51.58
2023-05-17T21:55:36.564Z,51.11
2023-05-17T21:58:15.766Z,51.12
2023-05-17T22:00:43.026Z,51.08
2023-05-17T22:03:10.243Z,50.97
2023-05-17T22:05:43.812Z,50.76
2023-05-17T22:08:10.862Z,50.71
2023-05-17T22:10:40.020Z,50.38
2023-05-17T22:13:11.609Z,50.12
2023-05-17T22:15:38.554Z,49.86
2023-05-17T22:18:05.613Z,49.79
2023-05-17T22:20:32.971Z,49.90
2023-05-17T22:23:00.308Z,50.30
2023-05-17T22:25:27.155Z,50.10
2023-05-17T22:28:01.712Z,50.45
2023-05-17T22:30:34.129Z,49.87
2023-05-17T22:33:02.564Z,49.75
2023-05-17T22:35:29.613Z,49.82
2023-05-17T22:38:02.399Z,49.71
2023-05-17T22:40:29.652Z,49.80
2023-05-17T22:42:58.269Z,49.73
2023-05-17T22:45:32.428Z,49.58
2023-05-17T22:48:02.266Z,49.73
2023-05-17T22:50:30.106Z,49.48
2023-05-17T22:53:00.615Z,49.92
2023-05-17T22:55:38.634Z,50.22
2023-05-17T22:58:05.609Z,50.47
2023-05-17T23:00:32.936Z,51.19
2023-05-17T23:02:59.859Z,52.91
2023-05-17T23:05:26.899Z,54.05
2023-05-17T23:07:54.964Z,53.51
2023-05-17T23:10:21.862Z,52.89
2023-05-17T23:12:50.220Z,54.56
2023-05-17T23:15:19.147Z,56.11
2023-05-17T23:17:46.810Z,56.01
2023-05-17T23:20:13.914Z,55.68
2023-05-17T23:22:40.881Z,55.52
2023-05-17T23:25:08.637Z,55.90
2023-05-17T23:27:35.654Z,56.47
2023-05-17T23:30:03.966Z,56.07
2023-05-17T23:32:34.433Z,55.78
2023-05-17T23:35:04.770Z,56.24
2023-05-17T23:37:35.566Z,57.53
2023-05-17T23:40:11.623Z,58.11
2023-05-17T23:42:39.418Z,59.55
2023-05-17T23:45:07.330Z,60.27
2023-05-17T23:47:34.574Z,60.08
2023-05-17T23:50:02.766Z,59.98
2023-05-17T23:52:31.852Z,59.96
2023-05-17T23:54:58.783Z,60.34
2023-05-17T23:57:25.806Z,60.90
2023-05-17T23:59:52.700Z,61.05
